sensor_id;sensor_type;location;lat;lon;timestamp;temperature;humidity
4739;DHT22;2383;48.632;10.156;2023-11-18T00:03:05;2.90;99.90
4739;DHT22;2383;48.632;10.156;2023-11-18T00:07:07;3.70;99.90
4739;DHT22;2383;48.632;10.156;2023-11-18T00:11:09;4.00;99.90
4739;DHT22;2383;48.632;10.156;2023-11-18T00:15:12;3.70;99.90
4739;DHT22;2383;48.632;10.156;2023-11-18T00:19:14;4.00;99.90
4739;DHT22;2383;48.632;10.156;2023-11-18T00:23:17;4.60;99.90
4739;DHT22;2383;48.632;10.156;2023-11-18T00:27:22;4.50;99.90
4739;DHT22;2383;48.632;10.156;2023-11-18T00:31:24;3.70;99.90
4739;DHT22;2383;48.632;10.156;2023-11-18T00:35:27;3.20;99.90
4739;DHT22;2383;48.632;10.156;2023-11-18T00:39:28;3.60;99.90
4739;DHT22;2383;48.632;10.156;2023-11-18T00:43:30;3.20;99.90
4739;DHT22;2383;48.632;10.156;2023-11-18T00:47:33;4.10;99.90
4739;DHT22;2383;48.632;10.156;2023-11-18T00:51:35;4.50;99.90
4739;DHT22;2383;48.632;10.156;2023-11-18T00:55:38;3.80;99.90
4739;DHT22;2383;48.632;10.156;2023-11-18T00:59:43;3.70;99.90
4739;DHT22;2383;48.632;10.156;2023-11-18T01:03:45;3.50;99.90
4739;DHT22;2383;48.632;10.156;2023-11-18T01:07:47;3.50;99.90
4739;DHT22;2383;48.632;10.156;2023-11-18T01:11:50;3.10;99.90
4739;DHT22;2383;48.632;10.156;2023-11-18T01:16:09;3.50;99.90
4739;DHT22;2383;48.632;10.156;2023-11-18T01:20:12;4.20;99.90
4739;DHT22;2383;48.632;10.156;2023-11-18T01:24:15;4.10;99.90
4739;DHT22;2383;48.632;10.156;2023-11-18T01:28:20;4.60;99.90
4739;DHT22;2383;48.632;10.156;2023-11-18T01:32:22;4.70;99.90
4739;DHT22;2383;48.632;10.156;2023-11-18T01:36:24;4.80;99.90
4739;DHT22;2383;48.632;10.156;2023-11-18T01:40:26;5.00;99.90
4739;DHT22;2383;48.632;10.156;2023-11-18T01:44:28;5.10;99.90
4739;DHT22;2383;48.632;10.156;2023-11-18T01:48:31;4.80;99.90
4739;DHT22;2383;48.632;10.156;2023-11-18T01:52:35;4.80;99.90
4739;DHT22;2383;48.632;10.156;2023-11-18T01:56:37;5.00;99.90
4739;DHT22;2383;48.632;10.156;2023-11-18T02:00:41;5.20;99.90
4739;DHT22;2383;48.632;10.156;2023-11-18T02:04:47;5.30;99.90
4739;DHT22;2383;48.632;10.156;2023-11-18T02:08:50;5.40;99.90
4739;DHT22;2383;48.632;10.156;2023-11-18T02:13:03;5.10;99.90
4739;DHT22;2383;48.632;10.156;2023-11-18T02:17:09;5.20;99.90
4739;DHT22;2383;48.632;10.156;2023-11-18T02:21:13;5.50;99.90
4739;DHT22;2383;48.632;10.156;2023-11-18T02:25:17;5.50;99.90
4739;DHT22;2383;48.632;10.156;2023-11-18T02:29:20;5.50;99.90
4739;DHT22;2383;48.632;10.156;2023-11-18T02:33:30;5.60;99.90
4739;DHT22;2383;48.632;10.156;2023-11-18T02:37:39;5.50;99.90
4739;DHT22;2383;48.632;10.156;2023-11-18T02:41:41;5.60;99.90
4739;DHT22;2383;48.632;10.156;2023-11-18T02:45:47;5.70;99.90
4739;DHT22;2383;48.632;10.156;2023-11-18T02:49:57;5.90;99.90
4739;DHT22;2383;48.632;10.156;2023-11-18T02:54:07;5.50;99.90
4739;DHT22;2383;48.632;10.156;2023-11-18T02:58:12;5.70;99.90
4739;DHT22;2383;48.632;10.156;2023-11-18T03:02:14;5.40;99.90
4739;DHT22;2383;48.632;10.156;2023-11-18T03:06:17;5.60;99.90
4739;DHT22;2383;48.632;10.156;2023-11-18T03:10:19;5.50;99.90
4739;DHT22;2383;48.632;10.156;2023-11-18T03:14:24;5.60;99.90
4739;DHT22;2383;48.632;10.156;2023-11-18T03:18:26;5.00;99.90
4739;DHT22;2383;48.632;10.156;2023-11-18T03:22:28;5.30;99.90
4739;DHT22;2383;48.632;10.156;2023-11-18T03:26:30;5.50;99.90
4739;DHT22;2383;48.632;10.156;2023-11-18T03:30:34;5.60;99.90
4739;DHT22;2383;48.632;10.156;2023-11-18T03:34:38;5.70;99.90
4739;DHT22;2383;48.632;10.156;2023-11-18T03:38:40;5.70;99.90
4739;DHT22;2383;48.632;10.156;2023-11-18T03:42:42;5.70;99.90
4739;DHT22;2383;48.632;10.156;2023-11-18T03:46:45;5.60;99.90
4739;DHT22;2383;48.632;10.156;2023-11-18T03:50:46;5.50;99.90
4739;DHT22;2383;48.632;10.156;2023-11-18T03:54:48;5.40;99.90
4739;DHT22;2383;48.632;10.156;2023-11-18T03:58:50;5.30;99.90
4739;DHT22;2383;48.632;10.156;2023-11-18T04:02:52;5.30;99.90
4739;DHT22;2383;48.632;10.156;2023-11-18T04:06:55;5.30;99.90
4739;DHT22;2383;48.632;10.156;2023-11-18T04:10:57;5.40;99.90
4739;DHT22;2383;48.632;10.156;2023-11-18T04:15:00;5.40;99.90
4739;DHT22;2383;48.632;10.156;2023-11-18T04:19:02;5.40;99.90
4739;DHT22;2383;48.632;10.156;2023-11-18T04:23:04;5.40;99.90
4739;DHT22;2383;48.632;10.156;2023-11-18T04:27:06;5.30;99.90
4739;DHT22;2383;48.632;10.156;2023-11-18T04:31:08;5.30;99.90
4739;DHT22;2383;48.632;10.156;2023-11-18T04:35:10;5.40;99.90
4739;DHT22;2383;48.632;10.156;2023-11-18T04:39:14;5.20;99.90
4739;DHT22;2383;48.632;10.156;2023-11-18T04:43:17;5.30;99.90
4739;DHT22;2383;48.632;10.156;2023-11-18T04:47:31;5.20;99.90
4739;DHT22;2383;48.632;10.156;2023-11-18T04:51:33;5.40;99.90
4739;DHT22;2383;48.632;10.156;2023-11-18T04:55:35;5.10;99.90
4739;DHT22;2383;48.632;10.156;2023-11-18T04:59:36;5.10;99.90
4739;DHT22;2383;48.632;10.156;2023-11-18T05:03:38;4.90;99.90
4739;DHT22;2383;48.632;10.156;2023-11-18T05:07:42;4.60;99.90
4739;DHT22;2383;48.632;10.156;2023-11-18T05:11:44;4.60;99.90
4739;DHT22;2383;48.632;10.156;2023-11-18T05:15:47;5.00;99.90
4739;DHT22;2383;48.632;10.156;2023-11-18T05:19:49;4.70;99.90
4739;DHT22;2383;48.632;10.156;2023-11-18T05:23:51;4.70;99.90
4739;DHT22;2383;48.632;10.156;2023-11-18T05:27:53;4.70;99.90
4739;DHT22;2383;48.632;10.156;2023-11-18T05:31:54;4.70;99.90
4739;DHT22;2383;48.632;10.156;2023-11-18T05:35:57;4.80;99.90
4739;DHT22;2383;48.632;10.156;2023-11-18T05:39:59;4.80;99.90
4739;DHT22;2383;48.632;10.156;2023-11-18T05:44:07;4.90;99.90
4739;DHT22;2383;48.632;10.156;2023-11-18T05:48:18;4.90;99.90
4739;DHT22;2383;48.632;10.156;2023-11-18T05:52:21;4.90;99.90
4739;DHT22;2383;48.632;10.156;2023-11-18T05:56:24;4.90;99.90
4739;DHT22;2383;48.632;10.156;2023-11-18T06:00:26;5.00;99.90
4739;DHT22;2383;48.632;10.156;2023-11-18T06:04:41;5.00;99.90
4739;DHT22;2383;48.632;10.156;2023-11-18T06:08:43;5.10;99.90
4739;DHT22;2383;48.632;10.156;2023-11-18T06:12:45;5.10;99.90
4739;DHT22;2383;48.632;10.156;2023-11-18T06:16:48;5.20;99.90
4739;DHT22;2383;48.632;10.156;2023-11-18T06:20:52;5.10;99.90
4739;DHT22;2383;48.632;10.156;2023-11-18T06:24:54;5.20;99.90
4739;DHT22;2383;48.632;10.156;2023-11-18T06:28:56;5.10;99.90
4739;DHT22;2383;48.632;10.156;2023-11-18T06:32:58;5.00;99.90
4739;DHT22;2383;48.632;10.156;2023-11-18T06:37:01;4.90;99.90
4739;DHT22;2383;48.632;10.156;2023-11-18T06:41:03;4.80;99.90
4739;DHT22;2383;48.632;10.156;2023-11-18T06:45:08;4.90;99.90
4739;DHT22;2383;48.632;10.156;2023-11-18T06:49:11;4.80;99.90
4739;DHT22;2383;48.632;10.156;2023-11-18T06:53:17;4.70;99.90
4739;DHT22;2383;48.632;10.156;2023-11-18T06:57:19;4.80;99.90
4739;DHT22;2383;48.632;10.156;2023-11-18T07:01:21;5.10;99.90
4739;DHT22;2383;48.632;10.156;2023-11-18T07:05:23;4.90;99.90
4739;DHT22;2383;48.632;10.156;2023-11-18T07:09:25;5.00;99.90
4739;DHT22;2383;48.632;10.156;2023-11-18T07:13:28;5.00;99.90
4739;DHT22;2383;48.632;10.156;2023-11-18T07:17:30;5.00;99.90
4739;DHT22;2383;48.632;10.156;2023-11-18T07:21:32;5.00;99.90
4739;DHT22;2383;48.632;10.156;2023-11-18T07:25:35;4.90;99.90
4739;DHT22;2383;48.632;10.156;2023-11-18T07:29:37;4.90;99.90
4739;DHT22;2383;48.632;10.156;2023-11-18T07:33:39;4.90;99.90
4739;DHT22;2383;48.632;10.156;2023-11-18T07:37:44;5.00;99.90
4739;DHT22;2383;48.632;10.156;2023-11-18T07:41:46;5.00;99.90
4739;DHT22;2383;48.632;10.156;2023-11-18T07:45:48;5.10;99.90
4739;DHT22;2383;48.632;10.156;2023-11-18T07:49:55;5.20;99.90
4739;DHT22;2383;48.632;10.156;2023-11-18T07:53:56;5.20;99.90
4739;DHT22;2383;48.632;10.156;2023-11-18T07:57:58;5.20;99.90
4739;DHT22;2383;48.632;10.156;2023-11-18T08:02:00;5.40;99.90
4739;DHT22;2383;48.632;10.156;2023-11-18T08:06:08;5.10;99.90
4739;DHT22;2383;48.632;10.156;2023-11-18T08:10:12;5.40;99.90
4739;DHT22;2383;48.632;10.156;2023-11-18T08:14:15;5.20;99.90
4739;DHT22;2383;48.632;10.156;2023-11-18T08:18:17;5.20;99.90
4739;DHT22;2383;48.632;10.156;2023-11-18T08:22:19;5.10;99.90
4739;DHT22;2383;48.632;10.156;2023-11-18T08:26:21;5.30;99.90
4739;DHT22;2383;48.632;10.156;2023-11-18T08:30:23;4.90;99.90
4739;DHT22;2383;48.632;10.156;2023-11-18T08:34:25;5.00;99.90
4739;DHT22;2383;48.632;10.156;2023-11-18T08:38:27;5.10;99.90
4739;DHT22;2383;48.632;10.156;2023-11-18T08:42:29;5.20;99.90
4739;DHT22;2383;48.632;10.156;2023-11-18T08:46:33;5.30;99.90
4739;DHT22;2383;48.632;10.156;2023-11-18T08:50:36;5.80;99.90
4739;DHT22;2383;48.632;10.156;2023-11-18T08:54:38;5.50;99.90
4739;DHT22;2383;48.632;10.156;2023-11-18T08:59:00;5.50;99.90
4739;DHT22;2383;48.632;10.156;2023-11-18T09:03:02;5.60;99.90
4739;DHT22;2383;48.632;10.156;2023-11-18T09:07:07;5.50;99.90
4739;DHT22;2383;48.632;10.156;2023-11-18T09:11:14;5.80;99.90
4739;DHT22;2383;48.632;10.156;2023-11-18T09:15:16;5.50;99.90
4739;DHT22;2383;48.632;10.156;2023-11-18T09:19:24;5.60;99.90
4739;DHT22;2383;48.632;10.156;2023-11-18T09:23:27;5.60;99.90
4739;DHT22;2383;48.632;10.156;2023-11-18T09:27:29;5.50;99.90
4739;DHT22;2383;48.632;10.156;2023-11-18T09:31:30;5.70;99.90
4739;DHT22;2383;48.632;10.156;2023-11-18T09:35:35;5.70;99.90
4739;DHT22;2383;48.632;10.156;2023-11-18T09:39:37;5.70;99.90
4739;DHT22;2383;48.632;10.156;2023-11-18T09:43:44;5.10;99.90
4739;DHT22;2383;48.632;10.156;2023-11-18T09:47:51;5.40;99.90
4739;DHT22;2383;48.632;10.156;2023-11-18T09:51:57;5.40;99.90
4739;DHT22;2383;48.632;10.156;2023-11-18T09:56:05;5.30;99.90
4739;DHT22;2383;48.632;10.156;2023-11-18T10:00:12;5.30;99.90
4739;DHT22;2383;48.632;10.156;2023-11-18T10:04:26;5.60;99.90
4739;DHT22;2383;48.632;10.156;2023-11-18T10:08:29;5.70;99.90
4739;DHT22;2383;48.632;10.156;2023-11-18T10:12:32;5.70;99.90
4739;DHT22;2383;48.632;10.156;2023-11-18T10:16:34;5.70;99.90
4739;DHT22;2383;48.632;10.156;2023-11-18T10:24:44;5.70;99.90
4739;DHT22;2383;48.632;10.156;2023-11-18T10:28:46;5.80;99.90
4739;DHT22;2383;48.632;10.156;2023-11-18T10:32:58;5.90;99.90
4739;DHT22;2383;48.632;10.156;2023-11-18T10:37:09;6.20;99.90
4739;DHT22;2383;48.632;10.156;2023-11-18T10:41:13;6.00;99.90
4739;DHT22;2383;48.632;10.156;2023-11-18T10:45:23;5.80;99.90
4739;DHT22;2383;48.632;10.156;2023-11-18T10:49:27;5.40;99.90
4739;DHT22;2383;48.632;10.156;2023-11-18T10:53:29;5.10;99.90
4739;DHT22;2383;48.632;10.156;2023-11-18T10:57:31;5.10;99.90
4739;DHT22;2383;48.632;10.156;2023-11-18T11:01:37;5.70;99.90
4739;DHT22;2383;48.632;10.156;2023-11-18T11:05:46;5.90;99.90
4739;DHT22;2383;48.632;10.156;2023-11-18T11:09:48;5.90;99.90
4739;DHT22;2383;48.632;10.156;2023-11-18T11:14:01;6.10;99.90
4739;DHT22;2383;48.632;10.156;2023-11-18T11:18:05;6.00;99.90
4739;DHT22;2383;48.632;10.156;2023-11-18T11:22:20;5.70;99.90
4739;DHT22;2383;48.632;10.156;2023-11-18T11:26:39;6.10;99.90
4739;DHT22;2383;48.632;10.156;2023-11-18T11:30:50;6.20;99.90
4739;DHT22;2383;48.632;10.156;2023-11-18T11:34:55;6.50;99.90
4739;DHT22;2383;48.632;10.156;2023-11-18T11:38:59;6.70;99.90
4739;DHT22;2383;48.632;10.156;2023-11-18T11:43:05;6.70;99.90
4739;DHT22;2383;48.632;10.156;2023-11-18T11:47:11;6.50;99.90
4739;DHT22;2383;48.632;10.156;2023-11-18T11:51:46;6.60;99.90
4739;DHT22;2383;48.632;10.156;2023-11-18T11:56:05;6.40;99.90
4739;DHT22;2383;48.632;10.156;2023-11-18T12:00:16;6.60;99.90
4739;DHT22;2383;48.632;10.156;2023-11-18T12:04:18;6.60;99.90
4739;DHT22;2383;48.632;10.156;2023-11-18T12:08:25;6.80;99.90
4739;DHT22;2383;48.632;10.156;2023-11-18T12:12:27;6.50;99.90
4739;DHT22;2383;48.632;10.156;2023-11-18T12:21:03;6.40;99.90
4739;DHT22;2383;48.632;10.156;2023-11-18T12:29:33;6.90;99.90
4739;DHT22;2383;48.632;10.156;2023-11-18T12:47:00;6.70;99.90
4739;DHT22;2383;48.632;10.156;2023-11-18T12:51:16;6.00;99.90
4739;DHT22;2383;48.632;10.156;2023-11-18T12:55:21;6.50;99.90
4739;DHT22;2383;48.632;10.156;2023-11-18T12:59:23;6.60;99.90
4739;DHT22;2383;48.632;10.156;2023-11-18T13:03:26;6.30;99.90
4739;DHT22;2383;48.632;10.156;2023-11-18T13:07:28;6.10;99.90
4739;DHT22;2383;48.632;10.156;2023-11-18T13:11:30;5.90;99.90
4739;DHT22;2383;48.632;10.156;2023-11-18T13:15:32;6.10;99.90
4739;DHT22;2383;48.632;10.156;2023-11-18T13:19:34;6.50;99.90
4739;DHT22;2383;48.632;10.156;2023-11-18T13:23:36;6.30;99.90
4739;DHT22;2383;48.632;10.156;2023-11-18T13:27:38;6.50;99.90
4739;DHT22;2383;48.632;10.156;2023-11-18T13:31:40;6.70;99.90
4739;DHT22;2383;48.632;10.156;2023-11-18T13:35:42;6.50;99.90
4739;DHT22;2383;48.632;10.156;2023-11-18T13:39:45;6.60;99.90
4739;DHT22;2383;48.632;10.156;2023-11-18T13:43:49;6.60;99.90
4739;DHT22;2383;48.632;10.156;2023-11-18T13:47:52;6.60;99.90
4739;DHT22;2383;48.632;10.156;2023-11-18T13:51:58;6.50;99.90
4739;DHT22;2383;48.632;10.156;2023-11-18T13:56:00;6.50;99.90
4739;DHT22;2383;48.632;10.156;2023-11-18T14:00:02;6.50;99.90
4739;DHT22;2383;48.632;10.156;2023-11-18T14:04:10;6.50;99.90
4739;DHT22;2383;48.632;10.156;2023-11-18T14:08:17;6.20;99.90
4739;DHT22;2383;48.632;10.156;2023-11-18T14:12:20;6.50;99.90
4739;DHT22;2383;48.632;10.156;2023-11-18T14:16:24;6.60;99.90
4739;DHT22;2383;48.632;10.156;2023-11-18T14:20:27;6.40;99.90
4739;DHT22;2383;48.632;10.156;2023-11-18T14:24:30;6.30;99.90
4739;DHT22;2383;48.632;10.156;2023-11-18T14:28:33;6.60;99.90
4739;DHT22;2383;48.632;10.156;2023-11-18T14:32:36;6.70;99.90
4739;DHT22;2383;48.632;10.156;2023-11-18T14:36:39;6.70;99.90
4739;DHT22;2383;48.632;10.156;2023-11-18T14:40:42;6.70;99.90
4739;DHT22;2383;48.632;10.156;2023-11-18T14:44:44;6.90;99.90
4739;DHT22;2383;48.632;10.156;2023-11-18T14:48:46;6.50;99.90
4739;DHT22;2383;48.632;10.156;2023-11-18T14:52:52;6.60;99.90
4739;DHT22;2383;48.632;10.156;2023-11-18T14:57:00;6.60;99.90
4739;DHT22;2383;48.632;10.156;2023-11-18T15:01:02;6.70;99.90
4739;DHT22;2383;48.632;10.156;2023-11-18T15:05:04;6.70;99.90
4739;DHT22;2383;48.632;10.156;2023-11-18T15:09:08;6.50;99.90
4739;DHT22;2383;48.632;10.156;2023-11-18T15:13:13;6.50;99.90
4739;DHT22;2383;48.632;10.156;2023-11-18T15:17:17;6.60;99.90
4739;DHT22;2383;48.632;10.156;2023-11-18T15:21:19;6.70;99.90
4739;DHT22;2383;48.632;10.156;2023-11-18T15:25:21;6.60;99.90
4739;DHT22;2383;48.632;10.156;2023-11-18T15:29:23;6.60;99.90
4739;DHT22;2383;48.632;10.156;2023-11-18T15:33:30;6.60;99.90
4739;DHT22;2383;48.632;10.156;2023-11-18T15:37:33;6.70;99.90
4739;DHT22;2383;48.632;10.156;2023-11-18T15:41:35;6.50;99.90
4739;DHT22;2383;48.632;10.156;2023-11-18T15:45:37;6.90;99.90
4739;DHT22;2383;48.632;10.156;2023-11-18T15:49:39;6.60;99.90
4739;DHT22;2383;48.632;10.156;2023-11-18T15:53:42;6.50;99.90
4739;DHT22;2383;48.632;10.156;2023-11-18T15:57:49;6.60;99.90
4739;DHT22;2383;48.632;10.156;2023-11-18T16:01:55;6.60;99.90
4739;DHT22;2383;48.632;10.156;2023-11-18T16:05:57;6.70;99.90
4739;DHT22;2383;48.632;10.156;2023-11-18T16:09:59;6.50;99.90
4739;DHT22;2383;48.632;10.156;2023-11-18T16:14:01;6.60;99.90
4739;DHT22;2383;48.632;10.156;2023-11-18T16:18:03;6.60;99.90
4739;DHT22;2383;48.632;10.156;2023-11-18T16:22:05;6.60;99.90
4739;DHT22;2383;48.632;10.156;2023-11-18T16:26:07;6.70;99.90
4739;DHT22;2383;48.632;10.156;2023-11-18T16:30:09;6.70;99.90
4739;DHT22;2383;48.632;10.156;2023-11-18T16:34:11;6.70;99.90
4739;DHT22;2383;48.632;10.156;2023-11-18T16:38:13;6.70;99.90
4739;DHT22;2383;48.632;10.156;2023-11-18T16:42:15;6.70;99.90
4739;DHT22;2383;48.632;10.156;2023-11-18T16:46:17;6.70;99.90
4739;DHT22;2383;48.632;10.156;2023-11-18T16:50:20;6.70;99.90
4739;DHT22;2383;48.632;10.156;2023-11-18T16:54:24;6.70;99.90
4739;DHT22;2383;48.632;10.156;2023-11-18T16:58:41;6.70;99.90
4739;DHT22;2383;48.632;10.156;2023-11-18T17:02:43;6.60;99.90
4739;DHT22;2383;48.632;10.156;2023-11-18T17:06:46;6.80;99.90
4739;DHT22;2383;48.632;10.156;2023-11-18T17:10:48;6.70;99.90
4739;DHT22;2383;48.632;10.156;2023-11-18T17:14:55;6.70;99.90
4739;DHT22;2383;48.632;10.156;2023-11-18T17:18:57;6.70;99.90
4739;DHT22;2383;48.632;10.156;2023-11-18T17:22:59;6.90;99.90
4739;DHT22;2383;48.632;10.156;2023-11-18T17:27:01;6.60;99.90
4739;DHT22;2383;48.632;10.156;2023-11-18T17:31:05;6.70;99.90
4739;DHT22;2383;48.632;10.156;2023-11-18T17:35:10;6.70;99.90
4739;DHT22;2383;48.632;10.156;2023-11-18T17:39:14;6.80;99.90
4739;DHT22;2383;48.632;10.156;2023-11-18T17:43:19;6.90;99.90
4739;DHT22;2383;48.632;10.156;2023-11-18T17:47:21;6.70;99.90
4739;DHT22;2383;48.632;10.156;2023-11-18T17:51:24;6.60;99.90
4739;DHT22;2383;48.632;10.156;2023-11-18T17:55:26;6.50;99.90
4739;DHT22;2383;48.632;10.156;2023-11-18T17:59:29;6.70;99.90
4739;DHT22;2383;48.632;10.156;2023-11-18T18:03:31;6.60;99.90
4739;DHT22;2383;48.632;10.156;2023-11-18T18:07:33;6.90;99.90
4739;DHT22;2383;48.632;10.156;2023-11-18T18:11:35;6.80;99.90
4739;DHT22;2383;48.632;10.156;2023-11-18T18:15:37;6.70;99.90
4739;DHT22;2383;48.632;10.156;2023-11-18T18:19:39;6.60;99.90
4739;DHT22;2383;48.632;10.156;2023-11-18T18:23:41;6.80;99.90
4739;DHT22;2383;48.632;10.156;2023-11-18T18:27:43;6.90;99.90
4739;DHT22;2383;48.632;10.156;2023-11-18T18:31:46;6.50;99.90
4739;DHT22;2383;48.632;10.156;2023-11-18T18:35:48;6.30;99.90
4739;DHT22;2383;48.632;10.156;2023-11-18T18:39:50;6.20;99.90
4739;DHT22;2383;48.632;10.156;2023-11-18T18:43:54;6.00;99.90
4739;DHT22;2383;48.632;10.156;2023-11-18T18:47:56;6.00;99.90
4739;DHT22;2383;48.632;10.156;2023-11-18T18:51:59;6.10;99.90
4739;DHT22;2383;48.632;10.156;2023-11-18T18:56:01;6.10;99.90
4739;DHT22;2383;48.632;10.156;2023-11-18T19:00:05;6.40;99.90
4739;DHT22;2383;48.632;10.156;2023-11-18T19:04:07;6.50;99.90
4739;DHT22;2383;48.632;10.156;2023-11-18T19:08:09;6.60;99.90
4739;DHT22;2383;48.632;10.156;2023-11-18T19:12:11;6.70;99.90
4739;DHT22;2383;48.632;10.156;2023-11-18T19:16:13;6.70;99.90
4739;DHT22;2383;48.632;10.156;2023-11-18T19:20:15;6.70;99.90
4739;DHT22;2383;48.632;10.156;2023-11-18T19:24:18;6.90;99.90
4739;DHT22;2383;48.632;10.156;2023-11-18T19:28:21;6.20;99.90
4739;DHT22;2383;48.632;10.156;2023-11-18T19:32:23;6.30;99.90
4739;DHT22;2383;48.632;10.156;2023-11-18T19:36:25;6.10;99.90
4739;DHT22;2383;48.632;10.156;2023-11-18T19:40:27;6.00;99.90
4739;DHT22;2383;48.632;10.156;2023-11-18T19:44:29;6.60;99.90
4739;DHT22;2383;48.632;10.156;2023-11-18T19:48:32;6.40;99.90
4739;DHT22;2383;48.632;10.156;2023-11-18T19:52:35;6.30;99.90
4739;DHT22;2383;48.632;10.156;2023-11-18T19:56:37;6.50;99.90
4739;DHT22;2383;48.632;10.156;2023-11-18T20:00:40;6.10;99.90
4739;DHT22;2383;48.632;10.156;2023-11-18T20:04:45;6.20;99.90
4739;DHT22;2383;48.632;10.156;2023-11-18T20:08:48;6.10;99.90
4739;DHT22;2383;48.632;10.156;2023-11-18T20:12:50;6.30;99.90
4739;DHT22;2383;48.632;10.156;2023-11-18T20:16:52;5.60;99.90
4739;DHT22;2383;48.632;10.156;2023-11-18T20:20:56;5.80;99.90
4739;DHT22;2383;48.632;10.156;2023-11-18T20:24:59;5.70;99.90
4739;DHT22;2383;48.632;10.156;2023-11-18T20:29:00;5.90;99.90
4739;DHT22;2383;48.632;10.156;2023-11-18T20:33:03;5.80;99.90
4739;DHT22;2383;48.632;10.156;2023-11-18T20:37:05;6.00;99.90
4739;DHT22;2383;48.632;10.156;2023-11-18T20:41:07;5.80;99.90
4739;DHT22;2383;48.632;10.156;2023-11-18T20:45:09;5.70;99.90
4739;DHT22;2383;48.632;10.156;2023-11-18T20:49:15;5.70;99.90
4739;DHT22;2383;48.632;10.156;2023-11-18T20:53:19;6.00;99.90
4739;DHT22;2383;48.632;10.156;2023-11-18T20:57:21;6.00;99.90
4739;DHT22;2383;48.632;10.156;2023-11-18T21:01:23;6.10;99.90
4739;DHT22;2383;48.632;10.156;2023-11-18T21:05:25;6.00;99.90
4739;DHT22;2383;48.632;10.156;2023-11-18T21:09:27;6.20;99.90
4739;DHT22;2383;48.632;10.156;2023-11-18T21:13:29;6.40;99.90
4739;DHT22;2383;48.632;10.156;2023-11-18T21:17:32;6.20;99.90
4739;DHT22;2383;48.632;10.156;2023-11-18T21:21:35;6.40;99.90
4739;DHT22;2383;48.632;10.156;2023-11-18T21:25:37;6.70;99.90
4739;DHT22;2383;48.632;10.156;2023-11-18T21:29:39;6.60;99.90
4739;DHT22;2383;48.632;10.156;2023-11-18T21:33:41;6.40;99.90
4739;DHT22;2383;48.632;10.156;2023-11-18T21:37:46;6.30;99.90
4739;DHT22;2383;48.632;10.156;2023-11-18T21:41:48;6.20;99.90
4739;DHT22;2383;48.632;10.156;2023-11-18T21:45:50;6.40;99.90
4739;DHT22;2383;48.632;10.156;2023-11-18T21:49:53;6.20;99.90
4739;DHT22;2383;48.632;10.156;2023-11-18T21:53:55;6.10;99.90
4739;DHT22;2383;48.632;10.156;2023-11-18T21:57:57;6.20;99.90
4739;DHT22;2383;48.632;10.156;2023-11-18T22:01:59;6.20;99.90
4739;DHT22;2383;48.632;10.156;2023-11-18T22:06:01;6.20;99.90
4739;DHT22;2383;48.632;10.156;2023-11-18T22:10:07;6.50;99.90
4739;DHT22;2383;48.632;10.156;2023-11-18T22:14:12;6.40;99.90
4739;DHT22;2383;48.632;10.156;2023-11-18T22:18:14;6.50;99.90
4739;DHT22;2383;48.632;10.156;2023-11-18T22:22:16;6.60;99.90
4739;DHT22;2383;48.632;10.156;2023-11-18T22:26:19;6.30;99.90
4739;DHT22;2383;48.632;10.156;2023-11-18T22:30:24;6.40;99.90
4739;DHT22;2383;48.632;10.156;2023-11-18T22:34:26;6.10;99.90
4739;DHT22;2383;48.632;10.156;2023-11-18T22:38:28;6.50;99.90
4739;DHT22;2383;48.632;10.156;2023-11-18T22:42:30;6.60;99.90
4739;DHT22;2383;48.632;10.156;2023-11-18T22:46:35;6.70;99.90
4739;DHT22;2383;48.632;10.156;2023-11-18T22:50:37;6.70;99.90
4739;DHT22;2383;48.632;10.156;2023-11-18T22:54:41;6.70;99.90
4739;DHT22;2383;48.632;10.156;2023-11-18T22:58:45;7.10;99.90
4739;DHT22;2383;48.632;10.156;2023-11-18T23:02:47;6.80;99.90
4739;DHT22;2383;48.632;10.156;2023-11-18T23:06:49;7.10;99.90
4739;DHT22;2383;48.632;10.156;2023-11-18T23:10:56;6.80;99.90
4739;DHT22;2383;48.632;10.156;2023-11-18T23:14:58;6.40;99.90
4739;DHT22;2383;48.632;10.156;2023-11-18T23:19:00;6.50;99.90
4739;DHT22;2383;48.632;10.156;2023-11-18T23:23:03;6.60;99.90
4739;DHT22;2383;48.632;10.156;2023-11-18T23:27:08;6.40;99.90
4739;DHT22;2383;48.632;10.156;2023-11-18T23:31:10;6.30;99.90
4739;DHT22;2383;48.632;10.156;2023-11-18T23:35:13;6.40;99.90
4739;DHT22;2383;48.632;10.156;2023-11-18T23:39:15;6.60;99.90
4739;DHT22;2383;48.632;10.156;2023-11-18T23:43:17;6.40;99.90
4739;DHT22;2383;48.632;10.156;2023-11-18T23:47:20;6.10;99.90
4739;DHT22;2383;48.632;10.156;2023-11-18T23:51:21;5.80;99.90
4739;DHT22;2383;48.632;10.156;2023-11-18T23:55:23;6.50;99.90
4739;DHT22;2383;48.632;10.156;2023-11-18T23:59:26;6.20;99.90
